sensor_id;sensor_type;location;lat;lon;timestamp;P1;durP1;ratioP1;P2;durP2;ratioP2
52072;SDS011;38074;51.232;6.826;2022-11-23T00:00:16;0.47;;;0.27;;
52072;SDS011;38074;51.232;6.826;2022-11-23T00:07:32;1.27;;;0.30;;
52072;SDS011;38074;51.232;6.826;2022-11-23T00:14:47;0.97;;;0.30;;
52072;SDS011;38074;51.232;6.826;2022-11-23T00:22:02;0.77;;;0.20;;
52072;SDS011;38074;51.232;6.826;2022-11-23T00:29:18;0.55;;;0.20;;
52072;SDS011;38074;51.232;6.826;2022-11-23T00:36:34;0.90;;;0.20;;
52072;SDS011;38074;51.232;6.826;2022-11-23T00:43:49;0.30;;;0.10;;
52072;SDS011;38074;51.232;6.826;2022-11-23T00:51:06;1.25;;;0.20;;
52072;SDS011;38074;51.232;6.826;2022-11-23T00:58:23;0.60;;;0.30;;
52072;SDS011;38074;51.232;6.826;2022-11-23T01:05:39;0.60;;;0.10;;
52072;SDS011;38074;51.232;6.826;2022-11-23T01:12:55;0.50;;;0.10;;
52072;SDS011;38074;51.232;6.826;2022-11-23T01:20:10;0.37;;;0.20;;
52072;SDS011;38074;51.232;6.826;2022-11-23T01:27:26;0.60;;;0.20;;
52072;SDS011;38074;51.232;6.826;2022-11-23T01:34:41;0.23;;;0.10;;
52072;SDS011;38074;51.232;6.826;2022-11-23T01:41:57;0.38;;;0.20;;
52072;SDS011;38074;51.232;6.826;2022-11-23T01:49:12;0.57;;;0.17;;
52072;SDS011;38074;51.232;6.826;2022-11-23T01:56:30;0.52;;;0.17;;
52072;SDS011;38074;51.232;6.826;2022-11-23T02:03:50;0.30;;;0.10;;
52072;SDS011;38074;51.232;6.826;2022-11-23T02:11:09;0.43;;;0.10;;
52072;SDS011;38074;51.232;6.826;2022-11-23T02:18:28;0.52;;;0.20;;
52072;SDS011;38074;51.232;6.826;2022-11-23T02:33:02;0.52;;;0.10;;
52072;SDS011;38074;51.232;6.826;2022-11-23T02:40:22;0.63;;;0.20;;
52072;SDS011;38074;51.232;6.826;2022-11-23T02:47:45;0.55;;;0.10;;
52072;SDS011;38074;51.232;6.826;2022-11-23T02:55:03;1.23;;;0.20;;
52072;SDS011;38074;51.232;6.826;2022-11-23T03:02:18;0.32;;;0.10;;
52072;SDS011;38074;51.232;6.826;2022-11-23T03:09:34;0.30;;;0.10;;
52072;SDS011;38074;51.232;6.826;2022-11-23T03:16:49;0.50;;;0.10;;
52072;SDS011;38074;51.232;6.826;2022-11-23T03:24:05;0.53;;;0.10;;
52072;SDS011;38074;51.232;6.826;2022-11-23T03:31:20;0.60;;;0.20;;
52072;SDS011;38074;51.232;6.826;2022-11-23T03:38:36;0.10;;;0.10;;
52072;SDS011;38074;51.232;6.826;2022-11-23T03:45:51;0.10;;;0.10;;
52072;SDS011;38074;51.232;6.826;2022-11-23T03:53:07;0.23;;;0.10;;
52072;SDS011;38074;51.232;6.826;2022-11-23T04:00:22;0.50;;;0.03;;
52072;SDS011;38074;51.232;6.826;2022-11-23T04:07:38;0.70;;;0.10;;
52072;SDS011;38074;51.232;6.826;2022-11-23T04:14:53;0.43;;;0.10;;
52072;SDS011;38074;51.232;6.826;2022-11-23T04:22:09;0.50;;;0.13;;
52072;SDS011;38074;51.232;6.826;2022-11-23T04:29:24;0.53;;;0.20;;
52072;SDS011;38074;51.232;6.826;2022-11-23T04:36:40;0.17;;;0.10;;
52072;SDS011;38074;51.232;6.826;2022-11-23T04:43:55;0.33;;;0.10;;
52072;SDS011;38074;51.232;6.826;2022-11-23T04:51:12;0.10;;;0.05;;
52072;SDS011;38074;51.232;6.826;2022-11-23T04:58:28;0.55;;;0.10;;
52072;SDS011;38074;51.232;6.826;2022-11-23T05:05:43;0.10;;;0.10;;
52072;SDS011;38074;51.232;6.826;2022-11-23T05:12:59;0.17;;;0.10;;
52072;SDS011;38074;51.232;6.826;2022-11-23T05:20:14;0.63;;;0.10;;
52072;SDS011;38074;51.232;6.826;2022-11-23T05:27:30;0.70;;;0.20;;
52072;SDS011;38074;51.232;6.826;2022-11-23T05:34:46;0.20;;;0.10;;
52072;SDS011;38074;51.232;6.826;2022-11-23T05:42:01;0.43;;;0.10;;
52072;SDS011;38074;51.232;6.826;2022-11-23T05:49:17;0.20;;;0.10;;
52072;SDS011;38074;51.232;6.826;2022-11-23T05:56:32;0.87;;;0.10;;
52072;SDS011;38074;51.232;6.826;2022-11-23T06:03:48;0.33;;;0.10;;
52072;SDS011;38074;51.232;6.826;2022-11-23T06:11:04;0.30;;;0.10;;
52072;SDS011;38074;51.232;6.826;2022-11-23T06:18:20;0.40;;;0.20;;
52072;SDS011;38074;51.232;6.826;2022-11-23T06:25:35;0.47;;;0.10;;
52072;SDS011;38074;51.232;6.826;2022-11-23T06:32:52;1.80;;;0.10;;
52072;SDS011;38074;51.232;6.826;2022-11-23T06:40:09;2.17;;;0.10;;
52072;SDS011;38074;51.232;6.826;2022-11-23T06:47:26;1.88;;;0.10;;
52072;SDS011;38074;51.232;6.826;2022-11-23T06:54:42;2.97;;;0.30;;
52072;SDS011;38074;51.232;6.826;2022-11-23T07:01:58;1.93;;;0.20;;
52072;SDS011;38074;51.232;6.826;2022-11-23T07:09:13;7.00;;;0.37;;
52072;SDS011;38074;51.232;6.826;2022-11-23T07:16:28;1.33;;;0.20;;
52072;SDS011;38074;51.232;6.826;2022-11-23T07:23:44;5.40;;;0.40;;
52072;SDS011;38074;51.232;6.826;2022-11-23T07:30:59;1.63;;;0.30;;
52072;SDS011;38074;51.232;6.826;2022-11-23T07:38:15;0.83;;;0.20;;
52072;SDS011;38074;51.232;6.826;2022-11-23T07:45:31;1.13;;;0.30;;
52072;SDS011;38074;51.232;6.826;2022-11-23T07:52:47;0.80;;;0.20;;
52072;SDS011;38074;51.232;6.826;2022-11-23T08:00:03;0.90;;;0.20;;
52072;SDS011;38074;51.232;6.826;2022-11-23T08:07:19;1.00;;;0.10;;
52072;SDS011;38074;51.232;6.826;2022-11-23T08:14:34;1.03;;;0.20;;
52072;SDS011;38074;51.232;6.826;2022-11-23T08:21:50;1.37;;;0.20;;
52072;SDS011;38074;51.232;6.826;2022-11-23T08:29:05;0.50;;;0.27;;
52072;SDS011;38074;51.232;6.826;2022-11-23T08:36:21;1.57;;;0.20;;
52072;SDS011;38074;51.232;6.826;2022-11-23T08:43:36;0.85;;;0.20;;
52072;SDS011;38074;51.232;6.826;2022-11-23T08:50:52;1.98;;;0.20;;
52072;SDS011;38074;51.232;6.826;2022-11-23T08:58:08;0.50;;;0.22;;
52072;SDS011;38074;51.232;6.826;2022-11-23T09:05:27;1.05;;;0.30;;
52072;SDS011;38074;51.232;6.826;2022-11-23T09:12:44;0.80;;;0.20;;
52072;SDS011;38074;51.232;6.826;2022-11-23T09:20:01;0.63;;;0.20;;
52072;SDS011;38074;51.232;6.826;2022-11-23T09:27:17;0.75;;;0.13;;
52072;SDS011;38074;51.232;6.826;2022-11-23T09:34:33;1.15;;;0.20;;
52072;SDS011;38074;51.232;6.826;2022-11-23T09:49:20;1.58;;;0.10;;
52072;SDS011;38074;51.232;6.826;2022-11-23T09:56:40;0.65;;;0.20;;
52072;SDS011;38074;51.232;6.826;2022-11-23T10:04:00;0.50;;;0.30;;
52072;SDS011;38074;51.232;6.826;2022-11-23T10:26:19;1.55;;;0.25;;
52072;SDS011;38074;51.232;6.826;2022-11-23T10:41:15;0.65;;;0.20;;
52072;SDS011;38074;51.232;6.826;2022-11-23T10:48:34;0.88;;;0.15;;
52072;SDS011;38074;51.232;6.826;2022-11-23T10:55:56;0.28;;;0.20;;
52072;SDS011;38074;51.232;6.826;2022-11-23T11:03:22;0.98;;;0.20;;
52072;SDS011;38074;51.232;6.826;2022-11-23T11:18:16;0.90;;;0.40;;
52072;SDS011;38074;51.232;6.826;2022-11-23T11:25:36;0.95;;;0.28;;
52072;SDS011;38074;51.232;6.826;2022-11-23T11:33:09;0.90;;;0.20;;
52072;SDS011;38074;51.232;6.826;2022-11-23T11:40:32;0.22;;;0.10;;
52072;SDS011;38074;51.232;6.826;2022-11-23T11:47:56;0.82;;;0.25;;
52072;SDS011;38074;51.232;6.826;2022-11-23T11:55:23;0.60;;;0.20;;
52072;SDS011;38074;51.232;6.826;2022-11-23T12:10:13;1.50;;;0.20;;
52072;SDS011;38074;51.232;6.826;2022-11-23T12:17:42;0.47;;;0.10;;
52072;SDS011;38074;51.232;6.826;2022-11-23T12:25:21;1.27;;;0.20;;
52072;SDS011;38074;51.232;6.826;2022-11-23T12:33:01;1.85;;;0.40;;
52072;SDS011;38074;51.232;6.826;2022-11-23T12:56:16;1.60;;;0.13;;
52072;SDS011;38074;51.232;6.826;2022-11-23T13:34:43;0.95;;;0.30;;
52072;SDS011;38074;51.232;6.826;2022-11-23T13:42:00;0.75;;;0.20;;
52072;SDS011;38074;51.232;6.826;2022-11-23T13:50:06;0.77;;;0.17;;
52072;SDS011;38074;51.232;6.826;2022-11-23T13:57:00;1.08;;;0.10;;
52072;SDS011;38074;51.232;6.826;2022-11-23T14:04:22;1.90;;;0.20;;
52072;SDS011;38074;51.232;6.826;2022-11-23T14:11:54;0.70;;;0.17;;
52072;SDS011;38074;51.232;6.826;2022-11-23T14:41:52;0.68;;;0.10;;
52072;SDS011;38074;51.232;6.826;2022-11-23T14:49:12;2.47;;;0.30;;
52072;SDS011;38074;51.232;6.826;2022-11-23T14:56:33;1.03;;;0.30;;
52072;SDS011;38074;51.232;6.826;2022-11-23T15:03:55;0.45;;;0.20;;
52072;SDS011;38074;51.232;6.826;2022-11-23T15:11:19;1.90;;;0.40;;
52072;SDS011;38074;51.232;6.826;2022-11-23T15:18:37;1.88;;;0.40;;
52072;SDS011;38074;51.232;6.826;2022-11-23T15:25:53;5.53;;;0.52;;
52072;SDS011;38074;51.232;6.826;2022-11-23T15:33:10;1.05;;;0.17;;
52072;SDS011;38074;51.232;6.826;2022-11-23T15:40:26;2.08;;;0.40;;
52072;SDS011;38074;51.232;6.826;2022-11-23T15:47:44;1.80;;;0.43;;
52072;SDS011;38074;51.232;6.826;2022-11-23T15:55:01;0.47;;;0.30;;
52072;SDS011;38074;51.232;6.826;2022-11-23T16:02:22;2.33;;;0.50;;
52072;SDS011;38074;51.232;6.826;2022-11-23T16:09:44;1.80;;;0.40;;
52072;SDS011;38074;51.232;6.826;2022-11-23T16:17:22;3.60;;;0.30;;
52072;SDS011;38074;51.232;6.826;2022-11-23T16:24:39;2.08;;;0.45;;
52072;SDS011;38074;51.232;6.826;2022-11-23T16:31:56;1.33;;;0.47;;
52072;SDS011;38074;51.232;6.826;2022-11-23T16:39:13;1.85;;;0.40;;
52072;SDS011;38074;51.232;6.826;2022-11-23T16:46:30;5.50;;;1.50;;
52072;SDS011;38074;51.232;6.826;2022-11-23T16:53:45;3.75;;;1.10;;
52072;SDS011;38074;51.232;6.826;2022-11-23T17:01:01;4.03;;;0.70;;
52072;SDS011;38074;51.232;6.826;2022-11-23T17:08:17;3.15;;;0.73;;
52072;SDS011;38074;51.232;6.826;2022-11-23T17:15:33;4.40;;;0.73;;
52072;SDS011;38074;51.232;6.826;2022-11-23T17:22:48;5.80;;;0.70;;
52072;SDS011;38074;51.232;6.826;2022-11-23T17:30:08;5.57;;;0.98;;
52072;SDS011;38074;51.232;6.826;2022-11-23T17:37:26;2.42;;;0.60;;
52072;SDS011;38074;51.232;6.826;2022-11-23T17:44:42;3.15;;;0.68;;
52072;SDS011;38074;51.232;6.826;2022-11-23T17:51:57;2.10;;;0.60;;
52072;SDS011;38074;51.232;6.826;2022-11-23T17:59:13;1.80;;;0.60;;
52072;SDS011;38074;51.232;6.826;2022-11-23T18:06:28;1.87;;;0.50;;
52072;SDS011;38074;51.232;6.826;2022-11-23T18:13:44;4.75;;;0.50;;
52072;SDS011;38074;51.232;6.826;2022-11-23T18:21:04;6.13;;;0.93;;
52072;SDS011;38074;51.232;6.826;2022-11-23T18:28:21;5.55;;;2.58;;
52072;SDS011;38074;51.232;6.826;2022-11-23T18:35:36;12.17;;;4.70;;
52072;SDS011;38074;51.232;6.826;2022-11-23T18:42:52;12.82;;;5.25;;
52072;SDS011;38074;51.232;6.826;2022-11-23T18:50:07;16.17;;;6.70;;
52072;SDS011;38074;51.232;6.826;2022-11-23T18:57:23;12.98;;;6.40;;
52072;SDS011;38074;51.232;6.826;2022-11-23T19:04:38;16.43;;;7.70;;
52072;SDS011;38074;51.232;6.826;2022-11-23T19:11:57;20.52;;;9.00;;
52072;SDS011;38074;51.232;6.826;2022-11-23T19:19:12;22.88;;;9.43;;
52072;SDS011;38074;51.232;6.826;2022-11-23T19:26:28;20.93;;;9.57;;
52072;SDS011;38074;51.232;6.826;2022-11-23T19:33:44;18.35;;;8.88;;
52072;SDS011;38074;51.232;6.826;2022-11-23T19:41:01;18.37;;;8.80;;
52072;SDS011;38074;51.232;6.826;2022-11-23T19:48:16;20.27;;;7.87;;
52072;SDS011;38074;51.232;6.826;2022-11-23T19:55:32;17.07;;;7.97;;
52072;SDS011;38074;51.232;6.826;2022-11-23T20:02:47;16.20;;;8.23;;
52072;SDS011;38074;51.232;6.826;2022-11-23T20:10:03;15.57;;;6.97;;
52072;SDS011;38074;51.232;6.826;2022-11-23T20:17:19;15.82;;;6.47;;
52072;SDS011;38074;51.232;6.826;2022-11-23T20:24:34;11.85;;;6.07;;
52072;SDS011;38074;51.232;6.826;2022-11-23T20:31:50;12.60;;;5.87;;
52072;SDS011;38074;51.232;6.826;2022-11-23T20:39:06;12.43;;;5.93;;
52072;SDS011;38074;51.232;6.826;2022-11-23T20:46:25;9.32;;;4.70;;
52072;SDS011;38074;51.232;6.826;2022-11-23T20:53:41;11.13;;;4.67;;
52072;SDS011;38074;51.232;6.826;2022-11-23T21:01:05;11.40;;;3.88;;
52072;SDS011;38074;51.232;6.826;2022-11-23T21:08:22;9.52;;;3.80;;
52072;SDS011;38074;51.232;6.826;2022-11-23T21:15:41;9.70;;;4.25;;
52072;SDS011;38074;51.232;6.826;2022-11-23T21:22:57;9.00;;;3.67;;
52072;SDS011;38074;51.232;6.826;2022-11-23T21:30:12;9.67;;;3.70;;
52072;SDS011;38074;51.232;6.826;2022-11-23T21:37:28;7.63;;;3.22;;
52072;SDS011;38074;51.232;6.826;2022-11-23T21:44:44;6.10;;;3.10;;
52072;SDS011;38074;51.232;6.826;2022-11-23T21:52:01;6.83;;;2.90;;
52072;SDS011;38074;51.232;6.826;2022-11-23T21:59:16;5.73;;;2.60;;
52072;SDS011;38074;51.232;6.826;2022-11-23T22:06:32;6.20;;;2.60;;
52072;SDS011;38074;51.232;6.826;2022-11-23T22:13:50;5.73;;;2.37;;
52072;SDS011;38074;51.232;6.826;2022-11-23T22:21:07;3.58;;;2.10;;
52072;SDS011;38074;51.232;6.826;2022-11-23T22:28:24;4.32;;;2.33;;
52072;SDS011;38074;51.232;6.826;2022-11-23T22:35:39;3.43;;;1.70;;
52072;SDS011;38074;51.232;6.826;2022-11-23T22:42:55;3.57;;;1.80;;
52072;SDS011;38074;51.232;6.826;2022-11-23T22:50:10;4.33;;;1.70;;
52072;SDS011;38074;51.232;6.826;2022-11-23T22:57:26;4.05;;;1.67;;
52072;SDS011;38074;51.232;6.826;2022-11-23T23:04:41;3.83;;;1.98;;
52072;SDS011;38074;51.232;6.826;2022-11-23T23:11:57;4.22;;;2.03;;
52072;SDS011;38074;51.232;6.826;2022-11-23T23:19:13;4.50;;;1.60;;
52072;SDS011;38074;51.232;6.826;2022-11-23T23:26:28;3.33;;;1.30;;
52072;SDS011;38074;51.232;6.826;2022-11-23T23:33:44;2.77;;;1.10;;
52072;SDS011;38074;51.232;6.826;2022-11-23T23:41:00;3.85;;;1.27;;
52072;SDS011;38074;51.232;6.826;2022-11-23T23:55:41;3.10;;;1.25;;
